Time;durP1;ratioP1;P1;durP2;ratioP2;P2;SDS_P1;SDS_P2;PMS_P1;PMS_P2;Temp;Humidity;BMP_temperature;BMP_pressure;BME280_temperature;BME280_humidity;BME280_pressure;Samples;Min_cycle;Max_cycle;Signal;HPM_P1;HPM_P2
2024/03/23 00:02:08;;;;;;;0.00;0.00;;;21.70;50.80;;;;;;5010837;28;20653;-49
2024/03/23 00:04:43;;;;;;;0.00;0.00;;;21.80;50.80;;;;;;5011202;28;20307;-47
2024/03/23 00:07:17;;;;;;;0.00;0.00;;;21.80;50.90;;;;;;5011647;28;20200;-49
2024/03/23 00:09:53;;;;;;;0.00;0.00;;;21.80;50.90;;;;;;5014365;28;20275;-46
2024/03/23 00:12:26;;;;;;;0.00;0.00;;;21.80;51.00;;;;;;5014730;28;20262;-49
2024/03/23 00:15:02;;;;;;;0.00;0.00;;;21.90;51.00;;;;;;5014523;28;20244;-50
2024/03/23 00:17:37;;;;;;;0.00;0.00;;;21.90;50.90;;;;;;5014180;28;20197;-48
2024/03/23 00:20:11;;;;;;;0.00;0.00;;;22.00;50.90;;;;;;5014117;28;20196;-47
2024/03/23 00:22:46;;;;;;;0.05;0.05;;;22.00;50.90;;;;;;5014066;28;20211;-51
2024/03/23 00:25:20;;;;;;;0.00;0.00;;;22.00;50.90;;;;;;5013883;28;20216;-48
2024/03/23 00:27:55;;;;;;;0.00;0.00;;;22.00;50.90;;;;;;5013914;28;20201;-51
2024/03/23 00:30:29;;;;;;;0.00;0.00;;;22.10;51.00;;;;;;5011225;28;20203;-47
2024/03/23 00:33:05;;;;;;;0.00;0.00;;;22.10;51.00;;;;;;5014369;28;20228;-50
2024/03/23 00:35:38;;;;;;;0.00;0.00;;;22.10;51.00;;;;;;5013618;28;20273;-49
2024/03/23 00:38:14;;;;;;;0.00;0.00;;;22.10;51.00;;;;;;5014083;28;20200;-53
2024/03/23 00:40:48;;;;;;;0.00;0.00;;;22.10;51.00;;;;;;5013276;28;20765;-48
2024/03/23 00:43:23;;;;;;;0.00;0.00;;;22.10;51.00;;;;;;5013494;28;20204;-49
2024/03/23 00:45:57;;;;;;;0.00;0.00;;;22.20;51.00;;;;;;5013922;28;20287;-46
2024/03/23 00:48:33;;;;;;;0.10;0.10;;;22.20;51.00;;;;;;5013343;28;20204;-49
2024/03/23 00:51:06;;;;;;;0.10;0.10;;;22.20;51.00;;;;;;5013415;28;20277;-47
2024/03/23 00:53:39;;;;;;;0.00;0.00;;;22.20;51.00;;;;;;5014370;28;20716;-52
2024/03/23 00:56:08;;;;;;;0.00;0.00;;;22.20;51.00;;;;;;5013737;28;20201;-55
2024/03/23 00:58:39;;;;;;;0.03;0.03;;;22.30;51.00;;;;;;5013908;28;20193;-52
2024/03/23 01:01:08;;;;;;;0.00;0.00;;;22.30;51.00;;;;;;5013457;28;20200;-54
2024/03/23 01:03:38;;;;;;;0.00;0.00;;;22.40;51.00;;;;;;5013816;28;20244;-53
2024/03/23 01:06:08;;;;;;;0.10;0.10;;;22.40;50.90;;;;;;5013606;28;20200;-53
2024/03/23 01:08:40;;;;;;;0.00;0.00;;;22.40;50.90;;;;;;5013943;28;20201;-51
2024/03/23 01:11:09;;;;;;;0.10;0.10;;;22.40;50.90;;;;;;5013324;28;20227;-56
2024/03/23 01:13:40;;;;;;;0.00;0.00;;;22.40;50.90;;;;;;5012488;28;20220;-51
2024/03/23 01:16:09;;;;;;;0.00;0.00;;;22.50;50.90;;;;;;5013130;28;20204;-50
2024/03/23 01:18:40;;;;;;;0.00;0.00;;;22.50;50.80;;;;;;5012765;28;20203;-54
2024/03/23 01:21:09;;;;;;;0.00;0.00;;;22.50;50.80;;;;;;5013193;28;20201;-52
2024/03/23 01:23:42;;;;;;;0.10;0.10;;;22.50;50.80;;;;;;5013062;28;20712;-47
2024/03/23 01:26:11;;;;;;;0.00;0.00;;;22.50;50.70;;;;;;5012957;28;20678;-50
2024/03/23 01:28:41;;;;;;;0.10;0.10;;;22.50;50.80;;;;;;5012990;28;20220;-50
2024/03/23 01:31:11;;;;;;;0.00;0.00;;;22.50;50.80;;;;;;5012816;28;20211;-51
2024/03/23 01:33:41;;;;;;;0.00;0.00;;;22.50;50.80;;;;;;5012820;28;20209;-50
2024/03/23 01:36:10;;;;;;;0.00;0.00;;;22.60;50.90;;;;;;5013151;28;20209;-49
2024/03/23 01:38:43;;;;;;;0.00;0.00;;;22.60;50.80;;;;;;5012511;28;20193;-54
2024/03/23 01:41:12;;;;;;;0.10;0.10;;;22.60;50.80;;;;;;5012401;28;20204;-51
2024/03/23 01:43:43;;;;;;;0.10;0.10;;;22.60;51.40;;;;;;5012266;28;20224;-54
2024/03/23 01:46:12;;;;;;;0.00;0.00;;;22.70;50.80;;;;;;5012734;28;20209;-52
2024/03/23 01:48:43;;;;;;;0.00;0.00;;;22.70;50.70;;;;;;5012713;28;20224;-51
2024/03/23 01:51:12;;;;;;;0.00;0.00;;;22.70;50.70;;;;;;5012821;28;20200;-55
2024/03/23 01:53:45;;;;;;;0.00;0.00;;;22.70;50.70;;;;;;5013027;28;20224;-53
2024/03/23 01:56:14;;;;;;;0.00;0.00;;;22.70;50.60;;;;;;5012220;28;20205;-53
2024/03/23 01:58:45;;;;;;;0.08;0.08;;;22.80;50.70;;;;;;5012787;28;20624;-50
2024/03/23 02:01:14;;;;;;;0.00;0.00;;;22.80;50.70;;;;;;5012223;28;20613;-49
2024/03/23 02:03:45;;;;;;;0.08;0.08;;;22.80;50.70;;;;;;5012677;28;20227;-52
2024/03/23 02:06:14;;;;;;;0.00;0.00;;;22.80;50.70;;;;;;5012729;28;20208;-47
2024/03/23 02:08:47;;;;;;;0.00;0.00;;;22.80;50.50;;;;;;5012498;28;20201;-47
2024/03/23 02:11:17;;;;;;;0.00;0.00;;;22.80;50.60;;;;;;5012552;28;20200;-56
2024/03/23 02:13:47;;;;;;;0.00;0.00;;;22.80;50.50;;;;;;5012087;28;20244;-52
2024/03/23 02:16:17;;;;;;;0.00;0.00;;;22.80;50.60;;;;;;5012115;28;20197;-51
2024/03/23 02:18:47;;;;;;;0.00;0.00;;;22.80;50.50;;;;;;5012208;28;20201;-49
2024/03/23 02:21:18;;;;;;;0.00;0.00;;;22.80;50.50;;;;;;5012418;28;20197;-52
2024/03/23 02:23:50;;;;;;;0.00;0.00;;;22.80;50.50;;;;;;5011717;28;20236;-55
2024/03/23 02:26:19;;;;;;;0.00;0.00;;;22.80;50.50;;;;;;5011606;28;20207;-52
2024/03/23 02:28:50;;;;;;;0.00;0.00;;;22.80;50.50;;;;;;5011523;28;20247;-52
2024/03/23 02:31:19;;;;;;;0.00;0.00;;;22.80;50.50;;;;;;5011403;28;20200;-52
2024/03/23 02:33:50;;;;;;;0.00;0.00;;;22.90;50.50;;;;;;5011753;28;20223;-49
2024/03/23 02:36:20;;;;;;;0.00;0.00;;;22.90;50.50;;;;;;5011487;28;20241;-49
2024/03/23 02:38:53;;;;;;;0.00;0.00;;;22.90;50.50;;;;;;5011199;28;20197;-49
2024/03/23 02:41:23;;;;;;;0.00;0.00;;;22.90;50.50;;;;;;5012027;28;20204;-47
2024/03/23 02:43:54;;;;;;;0.10;0.10;;;22.90;50.40;;;;;;5011766;28;20220;-49
2024/03/23 02:46:23;;;;;;;0.00;0.00;;;22.90;50.40;;;;;;5011359;28;20204;-50
2024/03/23 02:48:53;;;;;;;0.10;0.10;;;22.90;50.40;;;;;;5011638;28;20200;-54
2024/03/23 02:51:23;;;;;;;0.00;0.00;;;22.90;50.40;;;;;;5011496;28;20200;-50
2024/03/23 02:53:55;;;;;;;0.00;0.00;;;22.90;50.40;;;;;;5034318;23;20215;-47
2024/03/23 02:56:24;;;;;;;0.00;0.00;;;22.90;50.50;;;;;;5050706;28;20202;-50
2024/03/23 02:58:55;;;;;;;0.00;0.00;;;22.90;51.10;;;;;;5051501;28;20203;-45
2024/03/23 03:01:24;;;;;;;0.00;0.00;;;22.90;50.40;;;;;;5051146;28;20199;-48
2024/03/23 03:03:55;;;;;;;0.00;0.00;;;22.90;50.50;;;;;;5051056;28;20214;-47
2024/03/23 03:06:27;;;;;;;0.00;0.00;;;22.90;50.40;;;;;;5051248;28;20200;-45
2024/03/23 03:09:00;;;;;;;0.10;0.10;;;22.90;50.40;;;;;;5050878;28;20231;-45
2024/03/23 03:11:29;;;;;;;0.00;0.00;;;22.90;50.40;;;;;;5050594;28;20202;-47
2024/03/23 03:14:00;;;;;;;0.00;0.00;;;22.90;50.50;;;;;;5051005;28;20667;-48
2024/03/23 03:16:29;;;;;;;0.00;0.00;;;22.90;50.50;;;;;;5051227;28;20199;-46
2024/03/23 03:19:00;;;;;;;0.00;0.00;;;22.90;50.40;;;;;;5051103;28;20203;-48
2024/03/23 03:21:29;;;;;;;0.00;0.00;;;22.90;50.40;;;;;;5051358;28;20200;-45
2024/03/23 03:24:01;;;;;;;0.00;0.00;;;22.90;50.40;;;;;;5063347;28;20207;-42
2024/03/23 03:26:30;;;;;;;0.10;0.10;;;22.90;50.50;;;;;;5071700;28;20609;-45
2024/03/23 03:29:01;;;;;;;0.00;0.00;;;22.90;50.50;;;;;;5074662;28;20195;-42
2024/03/23 03:31:30;;;;;;;0.00;0.00;;;22.90;50.50;;;;;;5075173;28;20195;-45
2024/03/23 03:34:01;;;;;;;0.00;0.00;;;22.90;50.50;;;;;;5074985;28;20280;-44
2024/03/23 03:36:30;;;;;;;0.00;0.00;;;22.90;50.50;;;;;;5075343;28;20191;-45
2024/03/23 03:39:03;;;;;;;0.00;0.00;;;22.90;50.50;;;;;;5075173;28;20234;-42
2024/03/23 03:41:34;;;;;;;0.00;0.00;;;22.90;50.50;;;;;;5074973;28;20229;-43
2024/03/23 03:44:03;;;;;;;0.00;0.00;;;22.90;50.50;;;;;;5074793;28;20747;-46
2024/03/23 03:46:34;;;;;;;0.10;0.10;;;22.90;50.50;;;;;;5074540;28;20700;-43
2024/03/23 03:49:03;;;;;;;0.03;0.03;;;22.80;50.50;;;;;;5062106;28;20202;-48
2024/03/23 03:51:33;;;;;;;0.00;0.00;;;22.80;50.50;;;;;;5058795;28;20199;-45
2024/03/23 03:54:04;;;;;;;0.00;0.00;;;22.90;50.60;;;;;;5051557;28;20276;-46
2024/03/23 03:56:35;;;;;;;0.10;0.10;;;22.80;50.50;;;;;;5070501;28;20191;-46
2024/03/23 03:59:04;;;;;;;0.00;0.00;;;22.90;50.60;;;;;;5071126;28;20271;-44
2024/03/23 04:01:35;;;;;;;0.00;0.00;;;22.80;50.60;;;;;;5070971;28;20214;-52
2024/03/23 04:04:04;;;;;;;0.00;0.00;;;22.80;50.60;;;;;;5060756;28;20703;-47
2024/03/23 04:06:35;;;;;;;0.00;0.00;;;22.90;50.60;;;;;;5050621;28;20983;-47
2024/03/23 04:09:06;;;;;;;0.00;0.00;;;22.90;50.70;;;;;;5050706;28;20204;-46
2024/03/23 04:11:37;;;;;;;0.00;0.00;;;22.90;50.70;;;;;;5050755;28;20203;-48
2024/03/23 04:14:06;;;;;;;0.05;0.05;;;22.90;50.60;;;;;;5049846;28;20230;-44
2024/03/23 04:16:38;;;;;;;0.00;0.00;;;22.80;50.50;;;;;;5050364;28;20201;-52
2024/03/23 04:19:08;;;;;;;0.08;0.08;;;22.80;50.60;;;;;;5049756;28;20196;-55
2024/03/23 04:21:39;;;;;;;0.00;0.00;;;22.80;50.60;;;;;;5051437;28;20200;-49
2024/03/23 04:24:10;;;;;;;0.00;0.00;;;22.90;50.70;;;;;;5052091;28;20326;-44
2024/03/23 04:26:50;;;;;;;0.00;0.00;;;22.90;50.60;;;;;;5070743;28;20685;-48
2024/03/23 04:29:22;;;;;;;0.10;0.10;;;22.80;50.60;;;;;;5069740;28;20611;-48
2024/03/23 04:31:53;;;;;;;0.00;0.00;;;22.90;50.70;;;;;;5067797;28;20548;-49
2024/03/23 04:34:22;;;;;;;0.10;0.10;;;22.80;50.60;;;;;;5070485;28;20222;-48
2024/03/23 04:36:53;;;;;;;0.00;0.00;;;22.80;50.70;;;;;;5070438;28;20198;-44
2024/03/23 04:39:26;;;;;;;0.00;0.00;;;22.80;50.70;;;;;;5068240;28;20209;-46
2024/03/23 04:41:56;;;;;;;0.00;0.00;;;22.80;50.70;;;;;;5069877;28;20202;-45
2024/03/23 04:44:30;;;;;;;0.00;0.00;;;22.80;50.70;;;;;;5057838;28;20235;-47
2024/03/23 04:47:01;;;;;;;0.00;0.00;;;22.80;50.80;;;;;;5049876;28;20195;-50
2024/03/23 04:49:31;;;;;;;0.00;0.00;;;22.80;50.80;;;;;;5049770;28;20265;-46
2024/03/23 04:52:02;;;;;;;0.00;0.00;;;22.80;50.80;;;;;;5049246;28;20594;-50
2024/03/23 04:54:35;;;;;;;0.10;0.10;;;22.70;50.70;;;;;;5055150;28;20313;-49
2024/03/23 04:57:05;;;;;;;0.00;0.00;;;22.80;50.80;;;;;;5069394;28;20198;-51
2024/03/23 04:59:34;;;;;;;0.00;0.00;;;22.70;50.80;;;;;;5050874;28;20203;-49
2024/03/23 05:02:05;;;;;;;0.00;0.00;;;22.70;50.80;;;;;;5049436;28;20206;-49
2024/03/23 05:04:34;;;;;;;0.03;0.03;;;22.80;50.90;;;;;;5049725;28;20227;-47
2024/03/23 05:07:05;;;;;;;0.00;0.00;;;22.80;50.90;;;;;;5050080;28;20630;-50
2024/03/23 05:09:36;;;;;;;0.00;0.00;;;22.70;50.90;;;;;;5048940;28;20227;-47
2024/03/23 05:12:07;;;;;;;0.00;0.00;;;22.70;50.90;;;;;;5048725;28;20695;-50
2024/03/23 05:14:36;;;;;;;0.00;0.00;;;22.70;50.90;;;;;;5049602;28;20305;-47
2024/03/23 05:17:07;;;;;;;0.00;0.00;;;22.80;51.00;;;;;;5048781;28;20241;-52
2024/03/23 05:19:36;;;;;;;0.00;0.00;;;22.80;51.00;;;;;;5048839;28;20195;-43
2024/03/23 05:22:07;;;;;;;0.10;0.10;;;22.70;51.00;;;;;;5049175;28;20290;-46
2024/03/23 05:24:38;;;;;;;0.08;0.08;;;22.80;51.00;;;;;;5055695;28;20230;-45
2024/03/23 05:27:08;;;;;;;0.10;0.10;;;22.80;51.00;;;;;;5069468;28;20256;-48
2024/03/23 05:29:38;;;;;;;0.10;0.10;;;22.80;51.00;;;;;;5068276;28;20202;-44
2024/03/23 05:32:08;;;;;;;0.00;0.00;;;22.70;50.90;;;;;;5068209;28;20209;-47
2024/03/23 05:34:38;;;;;;;0.00;0.00;;;22.80;51.00;;;;;;5065476;28;20226;-48
2024/03/23 05:37:08;;;;;;;0.00;0.00;;;22.70;50.90;;;;;;5063660;28;20203;-45
2024/03/23 05:39:39;;;;;;;0.00;0.00;;;22.70;50.90;;;;;;5049066;28;20195;-46
2024/03/23 05:42:10;;;;;;;0.00;0.00;;;22.80;51.00;;;;;;5054170;28;20205;-44
2024/03/23 05:44:39;;;;;;;0.00;0.00;;;22.80;50.90;;;;;;5067822;28;20307;-46
2024/03/23 05:47:10;;;;;;;0.00;0.00;;;22.80;50.90;;;;;;5068818;28;20715;-46
2024/03/23 05:49:39;;;;;;;0.00;0.00;;;22.80;50.80;;;;;;5064262;28;20205;-50
2024/03/23 05:52:10;;;;;;;0.00;0.00;;;22.80;50.80;;;;;;5049362;28;20721;-48
2024/03/23 05:54:42;;;;;;;0.00;0.00;;;22.80;50.80;;;;;;5054819;28;20237;-47
2024/03/23 05:57:13;;;;;;;0.00;0.00;;;22.80;50.80;;;;;;5069105;28;20280;-51
2024/03/23 05:59:42;;;;;;;0.00;0.00;;;22.80;50.70;;;;;;5067971;28;20203;-47
2024/03/23 06:02:13;;;;;;;0.00;0.00;;;22.80;50.70;;;;;;5069170;28;20202;-50
2024/03/23 06:04:43;;;;;;;0.00;0.00;;;22.90;50.70;;;;;;5052649;28;20223;-48
2024/03/23 06:07:13;;;;;;;0.00;0.00;;;22.90;50.70;;;;;;5048219;28;20222;-46
2024/03/23 06:09:45;;;;;;;0.00;0.00;;;22.80;50.70;;;;;;5048532;28;20684;-52
2024/03/23 06:12:15;;;;;;;0.00;0.00;;;22.90;50.70;;;;;;5047880;28;20200;-52
2024/03/23 06:14:44;;;;;;;0.00;0.00;;;22.90;50.60;;;;;;5047856;28;20433;-50
2024/03/23 06:17:15;;;;;;;0.00;0.00;;;22.90;50.60;;;;;;5048100;28;20199;-50
2024/03/23 06:19:44;;;;;;;0.10;0.10;;;22.90;50.60;;;;;;5061142;28;20195;-44
2024/03/23 06:22:15;;;;;;;0.00;0.00;;;22.90;50.50;;;;;;5067722;28;20198;-44
2024/03/23 06:24:46;;;;;;;0.00;0.00;;;22.90;50.50;;;;;;5055505;28;20222;-51
2024/03/23 06:27:17;;;;;;;0.00;0.00;;;22.90;50.50;;;;;;5065871;28;20186;-46
2024/03/23 06:29:46;;;;;;;0.00;0.00;;;22.90;50.40;;;;;;5058819;28;20249;-52
2024/03/23 06:32:17;;;;;;;0.05;0.05;;;22.90;50.40;;;;;;5058349;28;20206;-51
2024/03/23 06:34:46;;;;;;;0.00;0.00;;;22.90;50.40;;;;;;5067949;28;20694;-47
2024/03/23 06:37:17;;;;;;;0.03;0.03;;;22.80;50.30;;;;;;5067267;28;20202;-47
2024/03/23 06:39:48;;;;;;;0.00;0.00;;;22.80;50.30;;;;;;5067653;28;20206;-49
2024/03/23 06:42:19;;;;;;;0.00;0.00;;;22.80;50.30;;;;;;5065959;28;20199;-47
2024/03/23 06:44:48;;;;;;;0.00;0.00;;;22.80;50.20;;;;;;5061159;28;20222;-50
2024/03/23 06:47:18;;;;;;;0.00;0.00;;;22.90;50.20;;;;;;5067479;28;20325;-49
2024/03/23 06:49:48;;;;;;;0.00;0.00;;;22.80;50.20;;;;;;5067230;28;20207;-45
2024/03/23 06:52:18;;;;;;;0.00;0.00;;;22.80;50.20;;;;;;5066960;28;20229;-46
2024/03/23 06:54:49;;;;;;;0.00;0.00;;;22.80;50.10;;;;;;5067667;28;20241;-48
2024/03/23 06:57:20;;;;;;;0.00;0.00;;;22.80;50.10;;;;;;5058257;28;20195;-49
2024/03/23 06:59:49;;;;;;;0.10;0.10;;;22.80;50.10;;;;;;5047919;28;20249;-47
2024/03/23 07:02:20;;;;;;;0.00;0.00;;;22.80;50.10;;;;;;5046284;28;20209;-53
2024/03/23 07:04:49;;;;;;;0.00;0.00;;;22.80;50.10;;;;;;5047541;28;20731;-46
2024/03/23 07:07:20;;;;;;;0.00;0.00;;;22.80;50.00;;;;;;5048036;28;20239;-45
2024/03/23 07:09:51;;;;;;;0.00;0.00;;;22.80;50.00;;;;;;5046912;28;20245;-47
2024/03/23 07:12:21;;;;;;;0.10;0.10;;;22.80;50.00;;;;;;5047322;28;20574;-54
2024/03/23 07:14:50;;;;;;;0.00;0.00;;;22.80;50.00;;;;;;5047014;28;20219;-45
2024/03/23 07:17:21;;;;;;;0.00;0.00;;;22.80;49.90;;;;;;5047465;28;20195;-56
2024/03/23 07:19:50;;;;;;;0.00;0.00;;;22.70;49.90;;;;;;5047107;28;20651;-47
2024/03/23 07:22:21;;;;;;;0.00;0.00;;;22.70;49.90;;;;;;5065193;28;20191;-51
2024/03/23 07:24:53;;;;;;;0.00;0.00;;;22.70;49.90;;;;;;5058688;28;20225;-46
2024/03/23 07:27:24;;;;;;;0.08;0.08;;;22.70;49.90;;;;;;5068070;28;20195;-49
2024/03/23 07:29:54;;;;;;;0.00;0.00;;;22.70;49.90;;;;;;5067166;28;20199;-50
2024/03/23 07:32:26;;;;;;;0.00;0.00;;;22.70;49.90;;;;;;5066853;28;20206;-47
2024/03/23 07:34:55;;;;;;;0.00;0.00;;;22.60;49.90;;;;;;5066996;28;20713;-52
2024/03/23 07:37:26;;;;;;;0.00;0.00;;;22.60;49.90;;;;;;5063155;28;20282;-50
2024/03/23 07:39:58;;;;;;;0.00;0.00;;;22.60;49.80;;;;;;5067523;28;20202;-53
2024/03/23 07:42:30;;;;;;;0.00;0.00;;;22.60;49.90;;;;;;5067391;28;20203;-49
2024/03/23 07:44:59;;;;;;;0.00;0.00;;;22.60;49.80;;;;;;5052417;28;20219;-51
2024/03/23 07:47:30;;;;;;;0.00;0.00;;;22.60;49.80;;;;;;5047548;28;20199;-49
2024/03/23 07:49:59;;;;;;;0.00;0.00;;;22.60;49.90;;;;;;5047265;28;20199;-44
2024/03/23 07:52:32;;;;;;;0.03;0.03;;;22.60;49.80;;;;;;5051651;28;20200;-47
2024/03/23 07:55:03;;;;;;;0.00;0.00;;;22.60;49.80;;;;;;5069072;23;20288;-51
2024/03/23 07:57:34;;;;;;;0.00;0.00;;;22.60;49.80;;;;;;5067332;28;20576;-50
2024/03/23 08:00:03;;;;;;;0.05;0.05;;;22.50;49.70;;;;;;5066601;28;20199;-49
2024/03/23 08:02:34;;;;;;;0.05;0.05;;;22.50;49.80;;;;;;5067367;28;20242;-48
2024/03/23 08:05:04;;;;;;;0.00;0.00;;;22.50;49.70;;;;;;5049747;28;20223;-50
2024/03/23 08:07:35;;;;;;;0.00;0.00;;;22.50;49.70;;;;;;5047153;28;20210;-49
2024/03/23 08:10:06;;;;;;;0.00;0.00;;;22.50;49.70;;;;;;5047264;28;20524;-51
2024/03/23 08:12:37;;;;;;;0.00;0.00;;;22.50;49.70;;;;;;5048080;28;20203;-49
2024/03/23 08:15:07;;;;;;;0.00;0.00;;;22.40;49.70;;;;;;5060282;28;20226;-52
2024/03/23 08:17:37;;;;;;;0.00;0.00;;;22.40;49.70;;;;;;5059512;28;20195;-47
2024/03/23 08:20:08;;;;;;;0.00;0.00;;;22.40;49.70;;;;;;5070239;28;20233;-49
2024/03/23 08:22:39;;;;;;;0.00;0.00;;;22.40;49.70;;;;;;5052609;28;20597;-54
2024/03/23 08:25:10;;;;;;;0.00;0.00;;;22.40;49.70;;;;;;5053842;28;20223;-54
2024/03/23 08:27:41;;;;;;;0.00;0.00;;;22.40;49.80;;;;;;5065067;28;20203;-50
2024/03/23 08:30:11;;;;;;;0.10;0.10;;;22.40;49.80;;;;;;5051168;28;20253;-49
2024/03/23 08:32:41;;;;;;;0.00;0.00;;;22.40;49.70;;;;;;5053839;28;20195;-46
2024/03/23 08:35:11;;;;;;;0.03;0.03;;;22.40;49.80;;;;;;5070145;28;20267;-50
2024/03/23 08:37:41;;;;;;;0.00;0.00;;;22.40;49.70;;;;;;5070029;28;20201;-51
2024/03/23 08:40:13;;;;;;;0.00;0.00;;;22.30;49.70;;;;;;5068651;28;20199;-49
2024/03/23 08:42:44;;;;;;;0.10;0.10;;;22.30;49.70;;;;;;5050010;28;20210;-52
2024/03/23 08:45:13;;;;;;;0.10;0.10;;;22.30;49.70;;;;;;5049267;28;20230;-49
2024/03/23 08:47:43;;;;;;;0.00;0.00;;;22.30;49.70;;;;;;5050008;28;20199;-48
2024/03/23 08:50:13;;;;;;;0.10;0.10;;;22.20;49.60;;;;;;5050086;28;20192;-49
2024/03/23 08:52:43;;;;;;;0.00;0.00;;;22.20;49.70;;;;;;5049469;28;20211;-50
2024/03/23 08:55:14;;;;;;;0.10;0.10;;;22.20;49.60;;;;;;5061516;28;20231;-46
2024/03/23 08:57:45;;;;;;;0.00;0.00;;;22.20;49.60;;;;;;5049419;28;20199;-49
2024/03/23 09:00:15;;;;;;;0.00;0.00;;;22.20;49.70;;;;;;5049755;28;20603;-50
2024/03/23 09:02:49;;;;;;;0.00;0.00;;;22.20;49.70;;;;;;5048781;28;20199;-47
2024/03/23 09:05:18;;;;;;;0.10;0.10;;;22.10;49.60;;;;;;5048923;28;20275;-48
2024/03/23 09:07:49;;;;;;;0.00;0.00;;;22.10;49.60;;;;;;5049623;28;20793;-50
2024/03/23 09:10:20;;;;;;;0.05;0.05;;;22.10;49.60;;;;;;5063250;28;20210;-48
2024/03/23 09:12:51;;;;;;;0.10;0.10;;;22.10;49.60;;;;;;5069788;28;20227;-50
2024/03/23 09:15:20;;;;;;;0.10;0.10;;;22.10;49.60;;;;;;5068824;28;20269;-48
2024/03/23 09:17:50;;;;;;;0.03;0.03;;;22.10;49.70;;;;;;5069754;28;20666;-47
2024/03/23 09:20:19;;;;;;;0.00;0.00;;;22.10;49.70;;;;;;5063062;28;20253;-49
2024/03/23 09:22:51;;;;;;;0.10;0.10;;;22.10;49.60;;;;;;5051438;28;20646;-47
2024/03/23 09:25:23;;;;;;;0.00;0.00;;;22.00;49.60;;;;;;5059822;28;20229;-53
2024/03/23 09:27:54;;;;;;;0.00;0.00;;;22.00;49.60;;;;;;5069969;28;20250;-52
2024/03/23 09:30:23;;;;;;;0.00;0.00;;;22.00;49.50;;;;;;5068019;28;20658;-50
2024/03/23 09:32:54;;;;;;;0.05;0.05;;;22.00;49.50;;;;;;5064511;28;20282;-50
2024/03/23 09:35:23;;;;;;;0.00;0.00;;;22.00;49.50;;;;;;5052947;28;20284;-53
2024/03/23 09:37:53;;;;;;;0.10;0.10;;;22.00;49.50;;;;;;5048654;28;20659;-49
2024/03/23 09:40:25;;;;;;;0.10;0.10;;;21.90;49.50;;;;;;5048267;28;20268;-51
2024/03/23 09:42:57;;;;;;;0.10;0.10;;;21.90;49.50;;;;;;5048750;28;20647;-50
2024/03/23 09:45:30;;;;;;;0.00;0.00;;;21.90;49.50;;;;;;5053635;28;20499;-50
2024/03/23 09:48:01;;;;;;;0.00;0.00;;;21.90;49.50;;;;;;5049307;28;20203;-51
2024/03/23 09:50:30;;;;;;;0.00;0.00;;;21.90;49.50;;;;;;5048223;28;20678;-50
2024/03/23 09:53:01;;;;;;;0.00;0.00;;;21.80;49.40;;;;;;5054744;28;20269;-52
2024/03/23 09:55:32;;;;;;;0.00;0.00;;;21.80;49.50;;;;;;5056079;28;20242;-50
2024/03/23 09:58:04;;;;;;;0.10;0.10;;;21.80;49.50;;;;;;5048785;28;20199;-52
2024/03/23 10:00:34;;;;;;;0.00;0.00;;;21.80;49.50;;;;;;5052430;28;20273;-54
2024/03/23 10:03:06;;;;;;;0.00;0.00;;;21.80;49.50;;;;;;5077865;28;20187;-51
2024/03/23 10:05:37;;;;;;;0.10;0.10;;;21.80;49.50;;;;;;5092309;28;20225;-48
2024/03/23 10:08:19;;;;;;;0.10;0.10;;;21.70;49.50;;;;;;5092285;28;20248;-54
2024/03/23 10:10:52;;;;;;;0.10;0.10;;;21.70;49.50;;;;;;5092343;28;20198;-52
2024/03/23 10:13:30;;;;;;;0.10;0.10;;;21.70;49.50;;;;;;5092727;28;20198;-47
2024/03/23 10:16:02;;;;;;;0.00;0.00;;;21.70;49.50;;;;;;5091809;28;20239;-50
2024/03/23 10:18:32;;;;;;;0.00;0.00;;;21.70;49.40;;;;;;5092605;28;20198;-53
2024/03/23 10:21:11;;;;;;;0.00;0.00;;;21.70;49.40;;;;;;5092305;28;20659;-52
2024/03/23 10:23:42;;;;;;;0.00;0.00;;;21.70;49.40;;;;;;5070859;28;20190;-48
2024/03/23 10:26:22;;;;;;;0.10;0.10;;;21.70;49.40;;;;;;5055378;28;20304;-53
2024/03/23 10:29:00;;;;;;;0.00;0.00;;;21.60;49.40;;;;;;5051766;28;20234;-47
2024/03/23 10:31:31;;;;;;;0.10;0.10;;;21.60;49.40;;;;;;5050898;28;20651;-50
2024/03/23 10:34:00;;;;;;;0.10;0.10;;;21.60;49.40;;;;;;5068484;28;20211;-50
2024/03/23 10:36:31;;;;;;;0.00;0.00;;;21.60;49.40;;;;;;5071549;28;20194;-48
2024/03/23 10:39:02;;;;;;;0.10;0.10;;;21.60;49.40;;;;;;5071324;28;20293;-48
2024/03/23 10:41:36;;;;;;;0.00;0.00;;;21.50;49.40;;;;;;5071240;28;20202;-47
2024/03/23 10:44:07;;;;;;;0.10;0.10;;;21.50;49.40;;;;;;5071584;28;20572;-50
2024/03/23 10:46:38;;;;;;;0.08;0.08;;;21.50;49.40;;;;;;5071236;28;20222;-50
2024/03/23 10:49:07;;;;;;;0.10;0.10;;;21.50;49.40;;;;;;5071765;28;20194;-46
2024/03/23 10:51:38;;;;;;;0.00;0.00;;;21.50;49.40;;;;;;5071713;28;20199;-45
2024/03/23 10:54:13;;;;;;;0.00;0.00;;;21.50;49.50;;;;;;5071904;28;20591;-49
2024/03/23 10:56:45;;;;;;;0.00;0.00;;;21.40;49.40;;;;;;5070588;28;20605;-46
2024/03/23 10:59:16;;;;;;;0.00;0.00;;;21.50;49.40;;;;;;5071577;28;20328;-46
2024/03/23 11:01:59;;;;;;;0.10;0.10;;;21.50;49.40;;;;;;5063446;28;20187;-45
2024/03/23 11:04:35;;;;;;;0.00;0.00;;;21.40;49.40;;;;;;5050854;28;20211;-46
2024/03/23 11:07:26;;;;;;;0.05;0.05;;;21.40;49.40;;;;;;5050726;28;20576;-45
2024/03/23 11:09:56;;;;;;;0.00;0.00;;;21.40;49.40;;;;;;5061800;28;20186;-53
2024/03/23 11:12:35;;;;;;;0.08;0.08;;;21.40;49.40;;;;;;5060366;28;20204;-48
2024/03/23 11:15:06;;;;;;;0.00;0.00;;;21.40;49.40;;;;;;5059723;28;20620;-50
2024/03/23 11:17:40;;;;;;;0.00;0.00;;;21.40;49.40;;;;;;5059537;28;20559;-52
2024/03/23 11:20:12;;;;;;;0.03;0.03;;;21.30;49.40;;;;;;5060897;28;20214;-49
2024/03/23 11:22:46;;;;;;;0.10;0.10;;;21.30;49.30;;;;;;5059027;28;20188;-51
2024/03/23 11:25:17;;;;;;;0.10;0.10;;;21.30;49.40;;;;;;5057863;28;20210;-52
2024/03/23 11:27:50;;;;;;;0.00;0.00;;;21.30;49.40;;;;;;5059300;28;20222;-46
2024/03/23 11:30:20;;;;;;;0.00;0.00;;;21.30;49.40;;;;;;5060169;28;20192;-53
2024/03/23 11:32:51;;;;;;;0.00;0.00;;;21.30;49.40;;;;;;5059139;28;20195;-47
2024/03/23 11:35:31;;;;;;;0.10;0.10;;;21.30;49.40;;;;;;5060006;28;20675;-47
2024/03/23 11:38:11;;;;;;;0.00;0.00;;;21.30;49.40;;;;;;5059444;28;20247;-51
2024/03/23 11:40:41;;;;;;;0.10;0.10;;;21.30;49.40;;;;;;5060193;28;20534;-48
2024/03/23 11:43:15;;;;;;;0.10;0.10;;;21.20;49.40;;;;;;5060269;28;20512;-50
2024/03/23 11:45:45;;;;;;;0.00;0.00;;;21.30;49.40;;;;;;5050325;28;20207;-53
2024/03/23 11:48:17;;;;;;;0.00;0.00;;;21.30;49.40;;;;;;5053054;28;20247;-52
2024/03/23 11:50:48;;;;;;;0.00;0.00;;;21.30;49.40;;;;;;5054615;28;20191;-45
2024/03/23 11:53:19;;;;;;;0.00;0.00;;;21.30;49.40;;;;;;5055258;28;20196;-46
2024/03/23 11:55:49;;;;;;;0.00;0.00;;;21.20;49.40;;;;;;5054144;28;20229;-46
2024/03/23 11:58:23;;;;;;;0.00;0.00;;;21.20;49.40;;;;;;5054574;28;20203;-50
2024/03/23 12:00:53;;;;;;;0.00;0.00;;;21.20;49.30;;;;;;5054411;28;20268;-50
2024/03/23 12:03:25;;;;;;;0.00;0.00;;;21.20;49.30;;;;;;5054385;28;20250;-45
2024/03/23 12:05:55;;;;;;;0.00;0.00;;;21.20;49.40;;;;;;5054067;28;20695;-48
2024/03/23 12:08:27;;;;;;;0.00;0.00;;;21.20;49.40;;;;;;5053876;28;20659;-46
2024/03/23 12:11:07;;;;;;;0.00;0.00;;;21.20;49.40;;;;;;5054298;28;20561;-48
2024/03/23 12:13:41;;;;;;;0.00;0.00;;;21.20;49.30;;;;;;5054458;28;20296;-46
2024/03/23 12:16:14;;;;;;;0.00;0.00;;;21.20;49.40;;;;;;5053813;28;20647;-48
2024/03/23 12:18:45;;;;;;;0.00;0.00;;;21.10;49.30;;;;;;5053870;28;20203;-45
2024/03/23 12:21:14;;;;;;;0.00;0.00;;;21.10;49.30;;;;;;5053899;28;20249;-48
2024/03/23 12:23:46;;;;;;;0.10;0.10;;;21.10;49.30;;;;;;5053727;28;20247;-47
2024/03/23 12:26:17;;;;;;;0.00;0.00;;;21.10;49.40;;;;;;5055565;28;20226;-49
2024/03/23 12:28:49;;;;;;;0.00;0.00;;;21.10;49.40;;;;;;5063033;28;20287;-47
2024/03/23 12:31:18;;;;;;;0.10;0.10;;;21.10;49.40;;;;;;5061926;28;20269;-49
2024/03/23 12:33:49;;;;;;;0.10;0.10;;;21.10;49.40;;;;;;5064178;28;20194;-46
2024/03/23 12:36:18;;;;;;;0.00;0.00;;;21.10;49.40;;;;;;5066785;28;20198;-46
2024/03/23 12:38:49;;;;;;;0.00;0.00;;;21.10;49.40;;;;;;5073879;28;20195;-50
2024/03/23 12:41:18;;;;;;;0.03;0.03;;;21.10;49.40;;;;;;5073644;28;20198;-49
2024/03/23 12:43:51;;;;;;;0.00;0.00;;;21.10;49.40;;;;;;5073691;28;20202;-47
2024/03/23 12:46:20;;;;;;;0.00;0.00;;;21.10;49.40;;;;;;5073978;28;20313;-49
2024/03/23 12:48:51;;;;;;;0.10;0.10;;;21.10;49.30;;;;;;5073900;28;20195;-46
2024/03/23 12:51:20;;;;;;;0.10;0.10;;;21.10;49.40;;;;;;5073734;28;20244;-47
2024/03/23 12:53:50;;;;;;;0.10;0.10;;;21.10;49.30;;;;;;5074016;28;20191;-47
2024/03/23 12:56:19;;;;;;;0.00;0.00;;;21.10;49.30;;;;;;5072470;28;20264;-47
2024/03/23 12:58:54;;;;;;;0.00;0.00;;;21.10;49.30;;;;;;5073343;28;20199;-45
2024/03/23 13:01:23;;;;;;;0.00;0.00;;;21.10;49.40;;;;;;5073808;28;20198;-47
2024/03/23 13:03:54;;;;;;;0.10;0.10;;;21.00;49.30;;;;;;5073556;28;20191;-49
2024/03/23 13:06:23;;;;;;;0.00;0.00;;;21.10;49.30;;;;;;5073424;28;20564;-46
2024/03/23 13:08:54;;;;;;;0.00;0.00;;;21.10;49.30;;;;;;5073619;28;20472;-50